Rhl Felicitas — A8SV2 — position and weather

sailwx.info

Track history (hours):
 
Tides and Currents Weather Stations Pressure Air Temp Water Temp Dewpoint Dewpoint Depression Visibility Wind Speed Wind Dir Waves Ship Positions

Rhl Felicitas

Last reported at 2014-Jul-04 06:33 UTC. Time now 2014-Jul-22 19:28 UTC.
Position N 32°04' W 080°57'.
Warning: this ship's position is 18 days out of date.

Length 294 m; draft 12.5 m.

Type: Cargo ship. MMSI: 636091781.

Date/timePositionNaut miles runAvg speedWind from/ knotsBaromVisibWave heightAir tempDewpointWater temp
2014-Jul-04 06:33N 32°04' W 080°57'9 8.6
2014-Jul-04 05:33N 32°06' W 081°07'2 0.7
2014-Jul-04 02:11N 32°08' W 081°08'0 0.0
2014-Jul-04 01:29N 32°08' W 081°08'0 0.0
2014-Jul-04 00:33N 32°08' W 081°08'0 0.0
2014-Jul-03 23:33N 32°08' W 081°08'0 0.0
2014-Jul-03 22:32N 32°08' W 081°08'0 0.0
2014-Jul-03 21:30N 32°08' W 081°08'0 0.0
2014-Jul-03 20:32N 32°08' W 081°08'0 0.0
2014-Jul-03 19:23N 32°08' W 081°08'0 0.0
2014-Jul-03 18:29N 32°08' W 081°08'0 0.0
2014-Jul-03 17:32N 32°08' W 081°08'0 0.0
2014-Jul-03 16:32N 32°08' W 081°08'0 0.0
2014-Jul-03 15:32N 32°08' W 081°08'0 0.0
2014-Jul-03 14:29N 32°08' W 081°08'0 0.0
2014-Jul-03 13:32N 32°08' W 081°08'0 0.0
2014-Jul-03 12:23N 32°08' W 081°08'0 0.0
2014-Jul-03 08:17N 32°08' W 081°08'2 2.6
2014-Jul-03 07:33N 32°06' W 081°07'5 5.4
2014-Jul-03 06:34N 32°06' W 081°01'31317.4
2014-Jul-02 12:33N 34°44' W 075°36'3615.8
2014-Jul-02 10:16N 35°12' W 075°09'1217.5
2014-Jul-02 09:34N 35°25' W 075°09'5518.0
2014-Jul-02 06:32N 36°19' W 075°15'1818.2
2014-Jul-02 05:33N 36°35' W 075°25'1917.5
2014-Jul-02 04:29N 36°49' W 075°40'1415.0
2014-Jul-02 03:33N 36°55' W 075°56'1515.0
2014-Jul-02 02:33N 37°00' W 076°13'7 5.9
2014-Jul-02 01:24N 36°56' W 076°20'0 0.0
2014-Jul-01 23:10N 36°56' W 076°20'0 0.0
2014-Jul-01 22:31N 36°56' W 076°20'0 0.0
2014-Jul-01 21:22N 36°56' W 076°20'0 0.0
2014-Jul-01 20:31N 36°56' W 076°20'0 0.0
2014-Jul-01 19:28N 36°56' W 076°20'0 0.0
2014-Jul-01 18:28N 36°56' W 076°20'0 0.0
2014-Jul-01 17:31N 36°56' W 076°20'0 0.0
2014-Jul-01 16:25N 36°56' W 076°20'0 0.0
2014-Jul-01 15:25N 36°56' W 076°20'0 0.0
2014-Jul-01 14:22N 36°56' W 076°20'0 0.0
2014-Jul-01 13:31N 36°56' W 076°20'0 0.0
2014-Jul-01 12:28N 36°56' W 076°20'0 0.0
2014-Jul-01 11:31N 36°56' W 076°20'0 0.0
2014-Jul-01 10:07N 36°56' W 076°20'0 0.0
2014-Jul-01 09:31N 36°56' W 076°20'0 0.0
2014-Jul-01 08:28N 36°56' W 076°20'0 0.4
2014-Jul-01 07:34N 36°56' W 076°20'10 9.7
2014-Jul-01 06:33N 36°59' W 076°09'1414.3
2014-Jul-01 05:34N 36°53' W 075°53'1111.0
2014-Jul-01 04:33N 36°51' W 075°39'1111.4
2014-Jul-01 03:34N 36°60' W 075°30'1111.0
2014-Jul-01 02:34N 37°09' W 075°22'1111.1
2014-Jul-01 01:34N 37°18' W 075°15'1212.2
2014-Jul-01 00:33N 37°28' W 075°06'1110.6
2014-Jun-30 23:33N 37°36' W 074°58'1111.0
2014-Jun-30 22:34N 37°45' W 074°50'1111.2
2014-Jun-30 21:34N 37°54' W 074°42'9 8.8
2014-Jun-30 20:33N 38°02' W 074°35'1212.2
2014-Jun-30 19:34N 38°12' W 074°26'1212.2
2014-Jun-30 18:34N 38°22' W 074°19'1212.3
2014-Jun-30 17:33N 38°34' W 074°13'1212.1
2014-Jun-30 16:34N 38°45' W 074°07'1111.2
2014-Jun-30 15:33N 38°55' W 074°02'1111.2
2014-Jun-30 14:34N 39°06' W 073°57'1413.6
2014-Jun-30 13:33N 39°20' W 073°56'1111.1
2014-Jun-30 12:33N 39°31' W 073°54'1111.0
2014-Jun-30 11:34N 39°41' W 073°53'1111.0
2014-Jun-30 10:33N 39°52' W 073°51'1110.8
2014-Jun-30 09:33N 40°03' W 073°50'1010.5
2014-Jun-30 08:33N 40°14' W 073°50'1010.3
2014-Jun-30 07:34N 40°24' W 073°49'1414.2
2014-Jun-30 06:34N 40°34' W 074°02'8 7.8
2014-Jun-30 05:34N 40°39' W 074°10'1 1.2
2014-Jun-30 04:33N 40°39' W 074°11'0 0.0
2014-Jun-30 03:33N 40°39' W 074°11'0 0.0
2014-Jun-30 02:33N 40°39' W 074°11'0 0.0
2014-Jun-30 01:33N 40°39' W 074°11'0 0.0
2014-Jun-30 00:33N 40°39' W 074°11'0 0.0
2014-Jun-29 23:33N 40°39' W 074°11'0 0.0
2014-Jun-29 22:33N 40°39' W 074°11'0 0.0
2014-Jun-29 21:30N 40°39' W 074°11'0 0.0
2014-Jun-29 20:06N 40°39' W 074°11'0 0.0
2014-Jun-29 19:30N 40°39' W 074°11'0 0.0
2014-Jun-29 18:30N 40°39' W 074°11'0 0.0
2014-Jun-29 17:33N 40°39' W 074°11'0 0.0
2014-Jun-29 16:30N 40°39' W 074°11'0 0.0
2014-Jun-29 15:27N 40°39' W 074°11'0 0.0
2014-Jun-29 14:30N 40°39' W 074°11'0 0.0
2014-Jun-29 13:21N 40°39' W 074°11'0 0.0
2014-Jun-29 12:21N 40°39' W 074°11'0 0.0
2014-Jun-29 11:33N 40°39' W 074°11'0 0.0
2014-Jun-29 10:33N 40°39' W 074°11'6 6.1
2014-Jun-29 09:33N 40°38' W 074°03'1212.5
2014-Jun-29 08:33N 40°28' W 073°53'8 8.2
2014-Jun-29 07:33N 40°22' W 073°47'9 9.4
2014-Jun-29 06:33N 40°12' W 073°45'1312.8
2014-Jun-29 05:33N 39°59' W 073°44'1413.9
2014-Jun-29 04:33N 39°46' W 073°42'1413.7
2014-Jun-29 03:33N 39°32' W 073°42'1413.5
2014-Jun-29 02:33N 39°18' W 073°43'1413.5
2014-Jun-29 01:33N 39°05' W 073°44'1413.6
2014-Jun-29 00:33N 38°51' W 073°44'1414.1
2014-Jun-28 23:33N 38°37' W 073°45'1414.2
2014-Jun-28 22:33N 38°23' W 073°45'1414.0
2014-Jun-28 21:33N 38°09' W 073°46'1515.2
2014-Jun-28 20:33N 37°54' W 073°47'9814.1
2014-Jun-28 13:33N 36°16' W 073°51'  
Track history (hours):
 
Tides and Currents Weather Stations Pressure Air Temp Water Temp Dewpoint Dewpoint Depression Visibility Wind Speed Wind Dir Waves Ship Positions

Rhl Felicitas

Last reported at 2014-Jul-04 06:33 UTC. Time now 2014-Jul-22 19:28 UTC.
Position N 32°04' W 080°57'.
Warning: this ship's position is 18 days out of date.

Length 294 m; draft 12.5 m.

Type: Cargo ship. MMSI: 636091781.

Date/timePositionNaut miles runAvg speedWind from/ knotsBaromVisibWave heightAir tempDewpointWater temp
2014-Jul-04 06:33N 32°04' W 080°57'9 8.6
2014-Jul-04 05:33N 32°06' W 081°07'2 0.7
2014-Jul-04 02:11N 32°08' W 081°08'0 0.0
2014-Jul-04 01:29N 32°08' W 081°08'0 0.0
2014-Jul-04 00:33N 32°08' W 081°08'0 0.0
2014-Jul-03 23:33N 32°08' W 081°08'0 0.0
2014-Jul-03 22:32N 32°08' W 081°08'0 0.0
2014-Jul-03 21:30N 32°08' W 081°08'0 0.0
2014-Jul-03 20:32N 32°08' W 081°08'0 0.0
2014-Jul-03 19:23N 32°08' W 081°08'0 0.0
2014-Jul-03 18:29N 32°08' W 081°08'0 0.0
2014-Jul-03 17:32N 32°08' W 081°08'0 0.0
2014-Jul-03 16:32N 32°08' W 081°08'0 0.0
2014-Jul-03 15:32N 32°08' W 081°08'0 0.0
2014-Jul-03 14:29N 32°08' W 081°08'0 0.0
2014-Jul-03 13:32N 32°08' W 081°08'0 0.0
2014-Jul-03 12:23N 32°08' W 081°08'0 0.0
2014-Jul-03 08:17N 32°08' W 081°08'2 2.6
2014-Jul-03 07:33N 32°06' W 081°07'5 5.4
2014-Jul-03 06:34N 32°06' W 081°01'31317.4
2014-Jul-02 12:33N 34°44' W 075°36'3615.8
2014-Jul-02 10:16N 35°12' W 075°09'1217.5
2014-Jul-02 09:34N 35°25' W 075°09'5518.0
2014-Jul-02 06:32N 36°19' W 075°15'1818.2
2014-Jul-02 05:33N 36°35' W 075°25'1917.5
2014-Jul-02 04:29N 36°49' W 075°40'1415.0
2014-Jul-02 03:33N 36°55' W 075°56'1515.0
2014-Jul-02 02:33N 37°00' W 076°13'7 5.9
2014-Jul-02 01:24N 36°56' W 076°20'0 0.0
2014-Jul-01 23:10N 36°56' W 076°20'0 0.0
2014-Jul-01 22:31N 36°56' W 076°20'0 0.0
2014-Jul-01 21:22N 36°56' W 076°20'0 0.0
2014-Jul-01 20:31N 36°56' W 076°20'0 0.0
2014-Jul-01 19:28N 36°56' W 076°20'0 0.0
2014-Jul-01 18:28N 36°56' W 076°20'0 0.0
2014-Jul-01 17:31N 36°56' W 076°20'0 0.0
2014-Jul-01 16:25N 36°56' W 076°20'0 0.0
2014-Jul-01 15:25N 36°56' W 076°20'0 0.0
2014-Jul-01 14:22N 36°56' W 076°20'0 0.0
2014-Jul-01 13:31N 36°56' W 076°20'0 0.0
2014-Jul-01 12:28N 36°56' W 076°20'0 0.0
2014-Jul-01 11:31N 36°56' W 076°20'0 0.0
2014-Jul-01 10:07N 36°56' W 076°20'0 0.0
2014-Jul-01 09:31N 36°56' W 076°20'0 0.0
2014-Jul-01 08:28N 36°56' W 076°20'0 0.4
2014-Jul-01 07:34N 36°56' W 076°20'10 9.7
2014-Jul-01 06:33N 36°59' W 076°09'1414.3
2014-Jul-01 05:34N 36°53' W 075°53'1111.0
2014-Jul-01 04:33N 36°51' W 075°39'1111.4
2014-Jul-01 03:34N 36°60' W 075°30'1111.0
2014-Jul-01 02:34N 37°09' W 075°22'1111.1
2014-Jul-01 01:34N 37°18' W 075°15'1212.2
2014-Jul-01 00:33N 37°28' W 075°06'1110.6
2014-Jun-30 23:33N 37°36' W 074°58'1111.0
2014-Jun-30 22:34N 37°45' W 074°50'1111.2
2014-Jun-30 21:34N 37°54' W 074°42'9 8.8
2014-Jun-30 20:33N 38°02' W 074°35'1212.2
2014-Jun-30 19:34N 38°12' W 074°26'1212.2
2014-Jun-30 18:34N 38°22' W 074°19'1212.3
2014-Jun-30 17:33N 38°34' W 074°13'1212.1
2014-Jun-30 16:34N 38°45' W 074°07'1111.2
2014-Jun-30 15:33N 38°55' W 074°02'1111.2
2014-Jun-30 14:34N 39°06' W 073°57'1413.6
2014-Jun-30 13:33N 39°20' W 073°56'1111.1
2014-Jun-30 12:33N 39°31' W 073°54'1111.0
2014-Jun-30 11:34N 39°41' W 073°53'1111.0
2014-Jun-30 10:33N 39°52' W 073°51'1110.8
2014-Jun-30 09:33N 40°03' W 073°50'1010.5
2014-Jun-30 08:33N 40°14' W 073°50'1010.3
2014-Jun-30 07:34N 40°24' W 073°49'1414.2
2014-Jun-30 06:34N 40°34' W 074°02'8 7.8
2014-Jun-30 05:34N 40°39' W 074°10'1 1.2
2014-Jun-30 04:33N 40°39' W 074°11'0 0.0
2014-Jun-30 03:33N 40°39' W 074°11'0 0.0
2014-Jun-30 02:33N 40°39' W 074°11'0 0.0
2014-Jun-30 01:33N 40°39' W 074°11'0 0.0
2014-Jun-30 00:33N 40°39' W 074°11'0 0.0
2014-Jun-29 23:33N 40°39' W 074°11'0 0.0
2014-Jun-29 22:33N 40°39' W 074°11'0 0.0
2014-Jun-29 21:30N 40°39' W 074°11'0 0.0
2014-Jun-29 20:06N 40°39' W 074°11'0 0.0
2014-Jun-29 19:30N 40°39' W 074°11'0 0.0
2014-Jun-29 18:30N 40°39' W 074°11'0 0.0
2014-Jun-29 17:33N 40°39' W 074°11'0 0.0
2014-Jun-29 16:30N 40°39' W 074°11'0 0.0
2014-Jun-29 15:27N 40°39' W 074°11'0 0.0
2014-Jun-29 14:30N 40°39' W 074°11'0 0.0
2014-Jun-29 13:21N 40°39' W 074°11'0 0.0
2014-Jun-29 12:21N 40°39' W 074°11'0 0.0
2014-Jun-29 11:33N 40°39' W 074°11'0 0.0
2014-Jun-29 10:33N 40°39' W 074°11'6 6.1
2014-Jun-29 09:33N 40°38' W 074°03'1212.5
2014-Jun-29 08:33N 40°28' W 073°53'8 8.2
2014-Jun-29 07:33N 40°22' W 073°47'9 9.4
2014-Jun-29 06:33N 40°12' W 073°45'1312.8
2014-Jun-29 05:33N 39°59' W 073°44'1413.9
2014-Jun-29 04:33N 39°46' W 073°42'1413.7
2014-Jun-29 03:33N 39°32' W 073°42'1413.5
2014-Jun-29 02:33N 39°18' W 073°43'1413.5
2014-Jun-29 01:33N 39°05' W 073°44'1413.6
2014-Jun-29 00:33N 38°51' W 073°44'1414.1
2014-Jun-28 23:33N 38°37' W 073°45'1414.2
2014-Jun-28 22:33N 38°23' W 073°45'1414.0
2014-Jun-28 21:33N 38°09' W 073°46'1515.2
2014-Jun-28 20:33N 37°54' W 073°47'9814.1
2014-Jun-28 13:33N 36°16' W 073°51'  

Dump ship's entire track history